createdAt,value
2023-03-23T15:59:13.376Z,27.80
2023-03-23T16:02:42.786Z,27.60
2023-03-23T16:06:11.595Z,27.73
2023-03-23T16:09:40.324Z,27.61
2023-03-23T16:13:09.000Z,27.76
2023-03-23T16:16:37.653Z,28.14
2023-03-23T16:20:06.493Z,27.94
2023-03-23T16:23:35.303Z,27.75
2023-03-23T16:27:03.963Z,27.86
2023-03-23T16:30:32.703Z,27.99
2023-03-23T16:34:02.449Z,28.00
2023-03-23T16:37:31.094Z,27.94
2023-03-23T16:40:00.864Z,28.03
2023-03-23T16:43:29.590Z,28.07
2023-03-23T16:46:58.433Z,27.87
2023-03-23T16:50:27.182Z,28.12
2023-03-23T16:53:55.894Z,28.19
2023-03-23T16:57:24.650Z,28.19
2023-03-23T17:00:53.689Z,28.10
2023-03-23T17:04:22.288Z,28.10
2023-03-23T17:07:50.977Z,28.13
2023-03-23T17:11:19.598Z,28.33
2023-03-23T17:24:44.634Z,28.38
2023-03-23T17:27:14.934Z,28.48
2023-03-23T17:29:44.738Z,28.38
2023-03-23T17:33:13.438Z,28.45
2023-03-23T17:36:42.174Z,28.41
2023-03-23T17:40:10.792Z,28.58
2023-03-23T17:43:39.555Z,28.69
2023-03-23T17:47:08.372Z,28.57
2023-03-23T17:50:37.101Z,28.69
2023-03-23T17:54:05.781Z,29.05
2023-03-23T17:57:34.452Z,29.25
2023-03-23T18:01:03.178Z,29.07
2023-03-23T18:04:32.204Z,29.14
2023-03-23T18:07:08.835Z,28.97
2023-03-23T18:09:38.508Z,29.31
2023-03-23T18:12:08.496Z,28.92
2023-03-23T18:14:40.528Z,29.04
2023-03-23T18:17:10.259Z,29.04
2023-03-23T18:20:38.979Z,29.11
2023-03-23T18:24:07.673Z,29.15
2023-03-23T18:27:37.148Z,28.97
2023-03-23T18:31:05.977Z,29.09
2023-03-23T18:34:34.749Z,29.20
2023-03-23T18:38:03.432Z,29.29
2023-03-23T18:41:32.137Z,29.13
2023-03-23T18:45:00.820Z,29.39
2023-03-23T18:48:29.608Z,29.08
2023-03-23T18:51:58.269Z,29.31
2023-03-23T18:55:26.978Z,29.03
2023-03-23T18:58:55.654Z,29.15
2023-03-23T19:02:24.401Z,29.28
2023-03-23T19:05:53.116Z,29.12
2023-03-23T19:09:21.906Z,29.10
2023-03-23T19:12:50.599Z,29.23
2023-03-23T19:16:19.344Z,29.29
2023-03-23T19:19:48.062Z,29.06
2023-03-23T19:23:16.758Z,29.33
2023-03-23T20:23:06.700Z,29.57
2023-03-23T20:26:35.660Z,29.64
2023-03-23T20:30:04.482Z,29.63
2023-03-23T20:33:33.149Z,29.70
2023-03-23T20:37:01.886Z,29.61
2023-03-23T20:40:30.712Z,29.61
2023-03-23T20:43:59.424Z,29.60
2023-03-23T20:47:28.140Z,29.83
2023-03-23T20:50:56.989Z,29.87
2023-03-23T20:54:25.649Z,29.75
2023-03-23T20:57:54.357Z,29.62
2023-03-23T21:01:23.156Z,29.99
2023-03-23T21:04:51.911Z,30.03
2023-03-23T21:08:20.570Z,29.75
2023-03-23T21:11:49.526Z,29.83
2023-03-23T21:15:18.190Z,30.06
2023-03-23T21:18:46.937Z,29.86
2023-03-23T21:22:16.787Z,29.87
2023-03-23T21:24:48.074Z,29.89
2023-03-23T21:27:18.191Z,29.88
2023-03-23T21:29:48.402Z,29.76
2023-03-23T21:32:18.119Z,29.86
2023-03-23T21:34:49.056Z,30.09
2023-03-23T21:37:18.784Z,29.81
2023-03-23T21:39:48.824Z,29.92
2023-03-23T21:43:17.555Z,29.91
2023-03-23T21:46:46.289Z,29.80
2023-03-23T21:50:15.065Z,29.65
2023-03-23T21:53:43.733Z,29.93
2023-03-23T21:57:12.489Z,29.84
2023-03-23T22:00:41.254Z,29.93
2023-03-23T22:04:10.018Z,29.79
2023-03-23T22:06:39.708Z,29.78
2023-03-23T22:10:08.474Z,29.81
2023-03-23T22:13:37.126Z,29.83
2023-03-23T22:17:06.088Z,29.88
2023-03-23T22:20:35.730Z,30.11
2023-03-23T22:24:04.439Z,31.35
2023-03-23T22:27:33.097Z,30.88
2023-03-23T22:30:02.796Z,30.73
2023-03-23T22:32:32.774Z,30.57
2023-03-23T22:35:02.421Z,30.38
2023-03-23T22:38:31.086Z,30.37
2023-03-23T22:41:02.758Z,30.83
2023-03-23T22:43:32.362Z,30.85
2023-03-23T22:46:02.106Z,31.14
2023-03-23T22:48:31.973Z,30.69
2023-03-23T22:52:00.668Z,30.73
2023-03-23T22:55:29.336Z,30.63
2023-03-23T22:58:58.123Z,30.60
2023-03-23T23:02:26.875Z,30.72
2023-03-23T23:05:55.641Z,30.48
2023-03-23T23:09:24.347Z,30.74
2023-03-23T23:12:53.073Z,30.54
2023-03-23T23:16:21.829Z,30.59
2023-03-23T23:19:50.521Z,30.24
2023-03-23T23:23:20.152Z,30.14
2023-03-23T23:26:48.850Z,30.21
2023-03-23T23:30:17.524Z,30.39
2023-03-23T23:33:46.147Z,30.60
2023-03-23T23:37:14.865Z,30.66
2023-03-23T23:40:43.714Z,31.41
2023-03-23T23:44:12.518Z,31.27
2023-03-23T23:47:41.172Z,31.19
2023-03-23T23:51:09.960Z,31.15
2023-03-23T23:54:38.651Z,31.05
2023-03-23T23:58:07.378Z,31.05
